Terminal Aerodrome Forecast
Issued by NWS Wilmington, OH

Current Version | Previous Version | Text Only | Print | Product List | Glossary Off
Versions: 1 2 3 4 5 6 7 8 9 10 11 12 13 14 15 16 17 18 19 20 21 22 23 24

000
FTUS41 KILN 312100 AAA
TAFDAY
TAF AMD
KDAY 312117Z 3121/0118 21007KT P6SM BKN035
     FM010600 20007KT 5SM BR VCSH OVC012
     FM011000 21006KT 3SM -SHRA BR OVC008
     FM011400 21010KT P6SM BKN018
     FM011700 21011G19KT P6SM BKN025=

USA.gov is the U.S. government's official web portal to all federal, state and local government web resources and services.